Latest Weather Observations for Morawa Airport

IDW60801

Issued at 9:43 am WST Wednesday 21 November 2018 (issued every 10 minutes, with the page automatically refreshed every 10 minutes)

About weather observations | Map of weather stations | Latest weather observations for WA | Other Formats
Station Details ID: 008296 Name: MORAWA AIRPORT Lat: -29.20 Lon: 116.02 Height: 271.4 m
Data from the previous 72 hours. | See also: Recent months at Morawa Airport
Date/Time
WST
Temp
°C
App
Temp
°C
Dew
Point
°C
Rel
Hum
%
Delta-T
°C
Wind Press
QNH
hPa
Press
MSL
hPa
Rain since
9am
mm
Dir  Spd
km/h
Gust
km/h
Spd
kts
Gust
kts
21/09:30am 22.6 17.5 3.2 28 9.4 E 19 28 10 15 1016.1 1014.9 0.0
21/09:00am 21.7 16.8 3.9 31 8.7 E 19 28 10 15 1016.4 1015.2 0.0
21/08:30am 20.6 15.4 3.8 33 8.2 E 20 28 11 15 1016.6 1015.4 0.0
21/08:00am 19.8 14.4 4.3 36 7.5 E 22 32 12 17 1016.7 1015.5 0.0
21/07:30am 18.2 12.3 4.0 39 6.8 E 24 32 13 17 1016.5 1015.3 0.0
21/07:00am 17.6 12.1 4.2 41 6.4 E 22 32 12 17 1016.4 1015.2 0.0
21/06:30am 16.2 12.1 4.3 45 5.6 E 15 19 8 10 1016.1 1014.9 0.0
21/06:00am 14.4 10.3 4.4 51 4.7 ESE 15 22 8 12 1015.7 1014.5 0.0
21/05:30am 12.7 9.0 4.4 57 3.8 ESE 13 20 7 11 1015.5 1014.3 0.0
21/05:00am 12.0 8.6 4.0 58 3.6 SE 11 19 6 10 1015.3 1014.1 0.0
21/04:30am 12.5 8.4 4.2 57 3.8 SE 15 19 8 10 1015.2 1013.9 0.0
21/04:00am 12.1 8.8 4.8 61 3.4 SE 11 15 6 8 1015.3 1014.1 0.0
21/03:30am 11.3 9.6 6.0 70 2.5 S 4 6 2 3 1015.5 1014.3 0.0
21/03:00am 11.6 9.6 6.1 69 2.6 SSE 6 7 3 4 1015.4 1014.2 0.0
21/02:30am 12.4 9.6 7.1 70 2.6 S 11 13 6 7 1015.7 1014.5 0.0
21/02:00am 12.7 10.0 7.4 70 2.6 SSE 11 15 6 8 1015.8 1014.6 0.0
21/01:30am 13.1 10.1 7.5 69 2.8 S 13 17 7 9 1016.1 1014.9 0.0
21/01:00am 13.5 9.7 7.5 67 3.0 S 17 22 9 12 1016.4 1015.2 0.0
21/12:30am 13.8 10.3 7.3 65 3.2 S 15 19 8 10 1016.6 1015.4 0.0
21/12:00am 14.2 10.7 7.3 63 3.4 S 15 19 8 10 1017.1 1015.9 0.0
 
Date/Time
WST
Temp
°C
App
Temp
°C
Dew
Point
°C
Rel
Hum
%
Delta-T
°C
Wind Press
QNH
hPa
Press
MSL
hPa
Rain since
9am
mm
Dir  Spd
km/h
Gust
km/h
Spd
kts
Gust
kts
20/11:30pm 14.7 11.2 7.0 60 3.8 SSE 15 19 8 10 1017.4 1016.1 0.0
20/11:00pm 15.3 11.3 6.8 57 4.2 S 17 22 9 12 1017.5 1016.2 0.0
20/10:30pm 16.0 11.9 6.4 53 4.7 S 17 24 9 13 1017.5 1016.2 0.0
20/10:00pm 17.0 12.5 5.9 48 5.5 S 19 32 10 17 1017.6 1016.3 0.0
20/09:30pm 18.0 13.1 4.9 42 6.4 S 20 28 11 15 1017.4 1016.1 0.0
20/09:00pm 18.9 14.1 -2.7 23 9.1 SSE 13 17 7 9 1016.9 1015.7 0.0
20/08:30pm 19.8 14.6 -2.5 22 9.5 SSE 15 20 8 11 1016.6 1015.4 0.0
20/08:00pm 20.5 15.3 -2.5 21 9.8 SSE 15 19 8 10 1016.3 1015.1 0.0
20/07:30pm 21.6 16.4 -3.0 19 10.5 SSE 15 20 8 11 1015.9 1014.7 0.0
20/07:00pm 23.0 16.8 -3.3 17 11.3 SSE 20 28 11 15 1015.7 1014.5 0.0
20/06:30pm 24.3 18.3 -3.1 16 12.0 SSE 19 26 10 14 1015.5 1014.3 0.0
20/06:00pm 25.1 19.0 -2.5 16 12.3 SE 20 32 11 17 1015.4 1014.2 0.0
20/05:30pm 26.3 20.3 -3.3 14 13.1 SSE 19 28 10 15 1015.1 1013.8 0.0
20/05:00pm 26.3 20.3 -3.3 14 13.1 SE 19 32 10 17 1015.1 1013.8 0.0
20/04:30pm 26.5 20.2 -4.1 13 13.4 SE 20 35 11 19 1015.2 1013.9 0.0
20/04:00pm 26.3 20.2 -4.3 13 13.3 SE 19 32 10 17 1015.3 1014.1 0.0
20/03:30pm 26.4 20.1 -4.2 13 13.4 ESE 20 30 11 16 1015.6 1014.4 0.0
20/03:00pm 26.2 19.6 -3.4 14 13.1 SE 22 33 12 18 1015.9 1014.7 0.0
20/02:30pm 26.0 20.1 -2.6 15 12.8 SE 19 28 10 15 1016.2 1015.0 0.0
20/02:00pm 25.7 18.9 -2.0 16 12.5 SE 24 35 13 19 1016.3 1015.1 0.0
20/01:30pm 24.9 19.0 -1.0 18 11.8 ESE 20 33 11 18 1016.9 1015.7 0.0
20/01:00pm 24.5 18.8 -0.6 19 11.5 SE 19 30 10 16 1017.4 1016.1 0.0
20/12:30pm 24.1 18.9 0.4 21 11.1 SE 17 32 9 17 1017.9 1016.6 0.0
20/12:00pm 23.6 18.6 1.3 23 10.5 SE 17 30 9 16 1018.4 1017.1 0.0
20/11:30am 22.9 17.0 1.9 25 10.0 SE 22 37 12 20 1018.9 1017.7 0.0
20/11:00am 22.1 16.8 2.8 28 9.3 SE 20 35 11 19 1019.1 1017.9 0.0
20/10:30am 21.3 15.6 3.0 30 8.8 SE 22 33 12 18 1019.6 1018.4 0.0
20/10:00am 21.3 15.8 4.0 32 8.4 SE 22 35 12 19 1019.9 1018.7 0.0
20/09:30am 20.3 14.5 4.4 35 7.8 SE 24 32 13 17 1020.2 1019.0 0.0
20/09:00am 19.1 12.9 4.5 38 7.1 SE 26 35 14 19 1020.4 1019.2 0.0
20/08:30am 18.0 11.5 4.9 42 6.4 ESE 28 39 15 21 1020.4 1019.2 0.0
20/08:00am 17.0 10.6 5.3 46 5.7 SE 28 35 15 19 1020.4 1019.2 0.0
20/07:30am 16.0 9.7 5.6 50 5.1 SE 28 37 15 20 1020.2 1019.0 0.0
20/07:00am 15.0 8.3 5.5 53 4.6 SE 30 39 16 21 1020.2 1019.0 0.0
20/06:30am 14.0 9.2 5.6 57 4.0 SE 20 30 11 16 1019.8 1018.6 0.0
20/06:00am 12.5 8.7 5.9 64 3.1 SSE 15 20 8 11 1019.7 1018.5 0.0
20/05:30am 11.4 8.8 6.1 70 2.5 S 9 13 5 7 1019.5 1018.3 0.0
20/05:00am 11.1 8.6 6.5 73 2.2 S 9 13 5 7 1019.2 1018.0 0.0
20/04:30am 11.3 8.1 6.8 74 2.2 S 13 22 7 12 1019.1 1017.9 0.0
20/04:00am 11.4 7.9 7.1 75 2.1 S 15 19 8 10 1018.9 1017.7 0.0
20/03:30am 11.8 7.9 7.3 74 2.2 S 17 22 9 12 1018.6 1017.4 0.0
20/03:00am 11.7 8.7 7.6 76 2.0 S 13 19 7 10 1018.6 1017.4 0.0
20/02:30am 11.9 8.9 7.8 76 2.0 S 13 17 7 9 1018.7 1017.5 0.0
20/02:00am 12.1 8.7 7.8 75 2.1 S 15 22 8 12 1018.6 1017.4 0.0
20/01:30am 12.4 9.1 7.9 74 2.2 S 15 20 8 11 1018.8 1017.6 0.0
20/01:00am 12.7 9.4 8.0 73 2.3 S 15 20 8 11 1019.1 1017.9 0.0
20/12:30am 13.0 9.2 7.7 70 2.6 S 17 24 9 13 1019.2 1018.0 0.0
20/12:00am 13.3 9.4 7.1 66 3.0 S 17 22 9 12 1019.4 1018.2 0.0
 
Date/Time
WST
Temp
°C
App
Temp
°C
Dew
Point
°C
Rel
Hum
%
Delta-T
°C
Wind Press
QNH
hPa
Press
MSL
hPa
Rain since
9am
mm
Dir  Spd
km/h
Gust
km/h
Spd
kts
Gust
kts
19/11:30pm 13.7 9.2 6.8 63 3.4 S 20 30 11 16 1019.6 1018.4 0.0
19/11:00pm 14.1 9.2 6.9 62 3.5 S 22 30 12 16 1019.6 1018.4 0.0
19/10:30pm 14.6 9.6 6.4 58 4.0 S 22 32 12 17 1019.7 1018.5 0.0
19/10:00pm 15.1 10.0 5.9 54 4.5 S 22 32 12 17 1019.7 1018.5 0.0
19/09:30pm 15.7 9.8 5.9 52 4.8 S 26 41 14 22 1019.5 1018.3 0.0
19/09:00pm 16.4 10.0 5.4 48 5.3 S 28 44 15 24 1019.0 1017.8 0.0
19/08:30pm 17.1 11.0 4.8 44 5.9 SSW 26 43 14 23 1018.6 1017.4 0.0
19/08:00pm 18.0 11.8 4.2 40 6.6 SSW 26 39 14 21 1018.1 1016.8 0.0
19/07:30pm 19.0 12.1 2.8 34 7.6 S 28 43 15 23 1017.6 1016.3 0.0
19/07:00pm 20.8 15.3 1.6 28 8.9 SSW 20 30 11 16 1017.2 1016.0 0.0
19/06:30pm 21.7 15.8 1.4 26 9.5 S 22 32 12 17 1016.7 1015.5 0.0
19/06:00pm 22.6 15.8 1.0 24 10.1 SSW 26 39 14 21 1016.4 1015.2 0.0
19/05:30pm 23.5 17.0 0.6 22 10.7 SSW 24 35 13 19 1016.2 1015.0 0.0
19/05:00pm 24.3 18.2 0.6 21 11.1 S 22 33 12 18 1016.0 1014.8 0.0
19/04:30pm 24.9 18.7 -0.3 19 11.7 S 22 37 12 20 1015.8 1014.6 0.0
19/04:00pm 25.0 19.0 -1.7 17 12.1 SSW 20 33 11 18 1015.8 1014.6 0.0
19/03:30pm 25.0 18.7 -0.9 18 11.9 S 22 35 12 19 1016.0 1014.8 0.0
19/03:00pm 24.3 18.5 -0.1 20 11.3 SSW 20 35 11 19 1016.3 1015.1 0.0
19/02:30pm 25.2 19.0 0.0 19 11.8 S 22 35 12 19 1016.3 1015.1 0.0
19/02:00pm 24.5 18.5 0.8 21 11.2 S 22 41 12 22 1016.4 1015.2 0.0
19/01:30pm 25.4 20.0 2.2 22 11.3 SSE 20 35 11 19 1016.6 1015.4 0.0
19/01:00pm 24.0 18.8 2.2 24 10.5 S 19 33 10 18 1017.0 1015.8 0.0
19/12:30pm 22.8 17.6 2.3 26 9.8 SSE 19 30 10 16 1017.4 1016.1 0.0
19/12:00pm 23.0 18.3 3.0 27 9.7 S 17 30 9 16 1017.4 1016.1 0.0
19/11:30am 23.1 18.1 3.6 28 9.6 SSE 19 28 10 15 1017.7 1016.4 0.0
19/11:00am 21.9 17.0 4.0 31 8.8 SSE 19 30 10 16 1017.8 1016.5 0.0
19/10:30am 21.4 16.0 4.5 33 8.4 SSE 22 39 12 21 1018.3 1017.0 0.0
19/10:00am 20.0 14.6 4.5 36 7.6 S 22 32 12 17 1018.3 1017.0 0.0
19/09:30am 19.6 14.4 5.3 39 7.1 S 22 35 12 19 1018.6 1017.4 0.0
19/09:00am 19.1 13.5 5.6 41 6.7 SSE 24 41 13 22 1018.7 1017.5 0.0
19/08:30am 18.8 13.0 6.3 44 6.3 S 26 37 14 20 1018.6 1017.4 0.0
19/08:00am 17.7 12.7 6.3 47 5.7 S 22 32 12 17 1018.4 1017.1 0.0
19/07:30am 16.6 10.6 7.0 53 4.8 S 28 35 15 19 1018.2 1016.9 0.0
19/07:00am 15.9 9.9 8.6 62 3.8 S 30 41 16 22 1018.0 1016.7 0.0
19/06:30am 15.4 11.4 10.4 72 2.7 S 22 32 12 17 1017.8 1016.5 0.0
19/06:00am 14.3 12.4 13.0 92 0.7 SSW 15 20 8 11 1017.6 1016.3 0.0
19/05:30am 13.5 11.8 13.5 100 0.0 SSW 15 20 8 11 1017.1 1015.9 0.0
19/05:00am 13.7 12.3 13.5 99 0.1 SSW 13 20 7 11 1016.7 1015.5 0.0
19/04:30am 13.8 12.2 13.8 100 0.0 SW 15 20 8 11 1016.2 1015.0 0.0
19/04:00am 14.0 12.4 14.0 100 0.0 SSW 15 20 8 11 1016.1 1014.9 0.0
19/03:30am 14.3 12.8 14.1 99 0.1 SSW 15 20 8 11 1015.9 1014.7 0.0
19/03:00am 14.6 13.1 14.3 98 0.2 SSW 15 19 8 10 1015.7 1014.5 0.0
19/02:30am 14.6 13.4 14.1 97 0.3 SSW 13 17 7 9 1015.5 1014.3 0.0
19/02:00am 14.8 14.1 14.2 96 0.3 SSW 11 17 6 9 1015.6 1014.4 0.0
19/01:30am - - - - - SSW 15 20 8 11 1015.8 1014.6 0.0
19/01:00am - - - - - SSW 17 22 9 12 1016.0 1014.8 0.0
19/12:30am 16.0 14.4 14.0 88 1.1 SSW 15 20 8 11 1016.5 1015.3 0.0
19/12:00am 16.3 14.7 14.0 86 1.3 SSW 15 20 8 11 1016.4 1015.2 0.0
 
Date/Time
WST
Temp
°C
App
Temp
°C
Dew
Point
°C
Rel
Hum
%
Delta-T
°C
Wind Press
QNH
hPa
Press
MSL
hPa
Rain since
9am
mm
Dir  Spd
km/h
Gust
km/h
Spd
kts
Gust
kts
18/11:30pm 16.8 14.4 13.7 82 1.8 SSW 19 28 10 15 1016.4 1015.2 0.0
18/11:00pm 17.2 15.4 13.3 78 2.2 SSW 15 20 8 11 1016.5 1015.3 0.0
18/10:30pm 17.6 15.6 12.7 73 2.8 SSW 15 20 8 11 1016.5 1015.3 0.0
18/10:00pm 18.1 15.1 12.1 68 3.4 SSW 19 30 10 16 1016.6 1015.4 0.0
18/09:30pm 18.4 14.8 11.9 66 3.6 SSW 22 33 12 18 1016.2 1015.0 0.0
18/09:00pm 18.8 14.5 12.1 65 3.8 SSW 26 35 14 19 1015.9 1014.7 0.0
18/08:30pm 19.7 14.9 11.7 60 4.5 SSW 28 39 15 21 1015.7 1014.5 0.0
18/08:00pm 20.7 16.6 11.6 56 5.1 SW 24 33 13 18 1015.4 1014.2 0.0
18/07:30pm 21.4 18.2 11.1 52 5.8 SW 19 28 10 15 1015.0 1013.7 0.0
18/07:00pm 22.6 18.8 11.0 48 6.5 WSW 22 30 12 16 1014.5 1013.2 0.0
18/06:30pm 23.9 20.4 10.9 44 7.3 SW 20 35 11 19 1014.0 1012.7 0.0
18/06:00pm 25.4 21.5 9.3 36 8.9 SW 20 33 11 18 1013.5 1012.2 0.0
18/05:30pm 26.9 22.5 8.8 32 10.0 SW 22 41 12 22 1013.1 1011.9 0.0
18/05:00pm 27.2 22.7 8.6 31 10.3 WSW 22 33 12 18 1012.8 1011.6 0.0
18/04:30pm 27.6 22.8 7.5 28 10.9 WSW 22 39 12 21 1012.7 1011.5 0.0
18/04:00pm 28.8 23.9 6.8 25 11.9 SW 22 32 12 17 1012.5 1011.3 0.0
18/03:30pm 28.6 22.8 6.1 24 12.0 WSW 26 48 14 26 1012.6 1011.4 0.0
18/03:00pm 29.3 23.8 6.0 23 12.4 WSW 24 35 13 19 1012.6 1011.4 0.0
18/02:30pm 29.3 24.2 6.0 23 12.4 SW 22 39 12 21 1012.8 1011.6 0.0
18/02:00pm 29.0 24.0 6.4 24 12.1 WSW 22 37 12 20 1012.8 1011.6 0.0
18/01:30pm 29.5 25.1 7.4 25 12.1 WSW 20 32 11 17 1013.2 1012.0 0.0
18/01:00pm 28.8 23.9 6.8 25 11.9 SW 22 35 12 19 1013.5 1012.2 0.0
18/12:30pm 28.7 25.0 7.9 27 11.4 SW 17 32 9 17 1013.8 1012.5 0.0
18/12:00pm 27.8 23.6 7.6 28 11.0 WSW 19 28 10 15 1014.0 1012.7 0.0
18/11:30am 26.7 23.7 9.1 33 9.8 SW 15 28 8 15 1014.2 1012.9 0.0
18/11:00am 26.4 24.1 10.5 37 9.0 SW 13 28 7 15 1014.6 1013.3 0.0
18/10:30am 25.0 23.3 11.2 42 7.9 SW 11 22 6 12 1015.0 1013.7 0.0
18/10:00am 23.6 21.6 11.6 47 6.8 SW 13 22 7 12 1015.2 1013.9 0.0

Other Formats:

Comma delimited format used in spreadsheet applications
http://www.bom.gov.au/fwo/IDW60801/IDW60801.94417.axf

JavaScript Object Notation format (JSON) in row-major order
http://www.bom.gov.au/fwo/IDW60801/IDW60801.94417.json